Anderson Dam, Idaho
Current Conditions -  °F | °C
As of 5:58 AM on Monday 22 Dec 2014 (Local Time) from KMUO Reporting Station
Drizzle Drizzle  
Wind Chill: 35°   Ceiling: 2100
Heat Index: 40°   Visibility: 10mi
Dew Point: 39°   Wind: 8mph
Humidity: 97%   Direction: 320°NW
Pressure: 30.08"   Gusts: NA
Location:  43.2609°N, 115.781°W
Report Text: KMUO 221258Z AUTO 32007KT 10SM -DZ OVC021 05/04 A3008 RMK AO2 RAE00DZB00E08RAB23E33DZB33E40DZB54 SLP197 P0000 T00450041
Loading
Personal Weather Stations






























Interactive Weather Map New forecast layout! Learn more

10-Day Weather Forecast

Advertisements
Track Severe Weather on mobile